Time;durP1;ratioP1;P1;durP2;ratioP2;P2;SDS_P1;SDS_P2;PMS_P1;PMS_P2;Temp;Humidity;BMP_temperature;BMP_pressure;BME280_temperature;BME280_humidity;BME280_pressure;Samples;Min_cycle;Max_cycle;Signal;HPM_P1;HPM_P2
2022/02/11 00:00:12;;;;;;;5.80;5.20;;;;;;;;;;5033846;28;24435;-57
2022/02/11 00:05:40;;;;;;;7.53;6.40;;;;;;;;;;5039207;28;24829;-57
2022/02/11 00:08:04;;;;;;;6.50;5.90;;;;;;;;;;5049241;28;24450;-57
2022/02/11 00:10:29;;;;;;;5.83;5.30;;;;;;;;;;5031962;28;24490;-58
2022/02/11 00:12:55;;;;;;;6.40;5.80;;;;;;;;;;5029898;28;24415;-57
2022/02/11 00:15:42;;;;;;;6.90;5.70;;;;;;;;;;5033779;28;24818;-58
2022/02/11 00:18:08;;;;;;;6.20;5.60;;;;;;;;;;5044431;28;24850;-58
2022/02/11 00:20:33;;;;;;;5.93;5.32;;;;;;;;;;5045215;28;24414;-58
2022/02/11 00:22:59;;;;;;;6.18;5.57;;;;;;;;;;5041627;28;24423;-59
2022/02/11 00:25:24;;;;;;;7.50;5.43;;;;;;;;;;5046861;28;24473;-57
2022/02/11 00:30:56;;;;;;;6.35;5.70;;;;;;;;;;5032833;28;24951;-57
2022/02/11 00:36:02;;;;;;;7.70;5.73;;;;;;;;;;5029075;28;24431;-58
2022/02/11 00:38:50;;;;;;;5.47;4.80;;;;;;;;;;5028806;28;24452;-57
2022/02/11 00:45:26;;;;;;;6.40;5.43;;;;;;;;;;5027138;28;24511;-58
2022/02/11 01:03:18;;;;;;;6.10;5.50;;;;;;;;;;5034443;28;24438;-57
2022/02/11 01:05:43;;;;;;;6.60;5.35;;;;;;;;;;5034395;28;24485;-57
2022/02/11 01:08:09;;;;;;;6.10;5.50;;;;;;;;;;5047116;28;24465;-58
2022/02/11 01:10:34;;;;;;;6.60;6.00;;;;;;;;;;5047186;28;24821;-58
2022/02/11 01:12:59;;;;;;;5.87;5.33;;;;;;;;;;5048428;28;24415;-58
2022/02/11 01:15:26;;;;;;;6.30;5.70;;;;;;;;;;5041716;28;24467;-57
2022/02/11 01:17:56;;;;;;;6.72;6.03;;;;;;;;;;5031482;28;25039;-58
2022/02/11 01:20:40;;;;;;;7.10;5.82;;;;;;;;;;5044240;28;24455;-57
2022/02/11 01:23:20;;;;;;;6.45;5.75;;;;;;;;;;5034638;28;24461;-58
2022/02/11 01:26:17;;;;;;;6.43;5.68;;;;;;;;;;5028261;28;24463;-57
2022/02/11 01:47:26;;;;;;;6.00;5.50;;;;;;;;;;5031123;28;24544;-57
2022/02/11 01:50:18;;;;;;;5.53;5.03;;;;;;;;;;5042964;28;24621;-57
2022/02/11 02:04:29;;;;;;;3.60;3.10;;;;;;;;;;5026973;28;24435;-61
2022/02/11 02:10:01;;;;;;;4.00;3.60;;;;;;;;;;5046602;28;24541;-58
2022/02/11 02:21:23;;;;;;;3.70;3.40;;;;;;;;;;5027427;28;24420;-59
2022/02/11 02:23:30;;;;;;;3.90;3.60;;;;;;;;;;5041731;28;24414;-59
2022/02/11 02:26:13;;;;;;;4.13;3.70;;;;;;;;;;5040609;28;24420;-58
2022/02/11 02:34:34;;;;;;;4.10;3.70;;;;;;;;;;5027503;28;24461;-59
2022/02/11 02:37:16;;;;;;;4.50;4.10;;;;;;;;;;5027835;28;24475;-60
2022/02/11 02:58:56;;;;;;;5.07;4.67;;;;;;;;;;5034784;28;24987;-57
2022/02/11 03:01:45;;;;;;;7.00;5.18;;;;;;;;;;5037253;28;24513;-58
2022/02/11 03:15:48;;;;;;;5.40;4.90;;;;;;;;;;5036956;28;24977;-58
2022/02/11 03:31:36;;;;;;;4.70;4.30;;;;;;;;;;5033875;28;24792;-59
2022/02/11 04:56:31;;;;;;;4.70;4.30;;;;;;;;;;5031453;28;24403;-57
2022/02/11 05:01:42;;;;;;;4.47;4.00;;;;;;;;;;5038751;28;24465;-58
2022/02/11 05:04:07;;;;;;;5.00;4.50;;;;;;;;;;5038572;28;24420;-58
2022/02/11 05:06:32;;;;;;;4.80;4.40;;;;;;;;;;5038968;28;24501;-59
2022/02/11 05:08:59;;;;;;;4.70;4.30;;;;;;;;;;5032924;28;24510;-58
2022/02/11 05:11:24;;;;;;;5.07;3.90;;;;;;;;;;5033831;28;24412;-59
2022/02/11 05:13:50;;;;;;;5.88;4.50;;;;;;;;;;5033283;28;24418;-58
2022/02/11 05:16:15;;;;;;;4.80;4.30;;;;;;;;;;5031559;28;24431;-58
2022/02/11 05:18:40;;;;;;;4.22;3.85;;;;;;;;;;5027681;28;25024;-58
2022/02/11 05:21:05;;;;;;;4.30;3.90;;;;;;;;;;5029078;28;24411;-58
2022/02/11 05:23:30;;;;;;;3.80;3.50;;;;;;;;;;5029600;28;24674;-58
2022/02/11 05:25:55;;;;;;;4.20;3.90;;;;;;;;;;5038285;28;24429;-59
2022/02/11 05:28:20;;;;;;;4.22;3.92;;;;;;;;;;5035150;28;24844;-58
2022/02/11 05:30:46;;;;;;;4.40;4.10;;;;;;;;;;5037228;28;25019;-59
2022/02/11 05:33:12;;;;;;;4.20;3.80;;;;;;;;;;5033443;28;24419;-60
2022/02/11 05:35:38;;;;;;;3.95;3.65;;;;;;;;;;5035954;28;24478;-60
2022/02/11 05:38:03;;;;;;;4.50;3.90;;;;;;;;;;5029594;28;24521;-60
2022/02/11 05:40:28;;;;;;;3.90;3.60;;;;;;;;;;5027515;28;24795;-60
2022/02/11 05:42:54;;;;;;;3.20;2.90;;;;;;;;;;5026124;28;24506;-59
2022/02/11 05:45:19;;;;;;;3.40;3.20;;;;;;;;;;5035579;28;24481;-60
2022/02/11 05:47:44;;;;;;;3.50;3.20;;;;;;;;;;5044326;28;24410;-59
2022/02/11 05:50:09;;;;;;;3.20;3.00;;;;;;;;;;5043349;28;24414;-60
2022/02/11 05:52:34;;;;;;;3.80;3.50;;;;;;;;;;5030393;28;24909;-59
2022/02/11 05:55:00;;;;;;;3.87;3.47;;;;;;;;;;5040309;28;24428;-59
2022/02/11 05:57:25;;;;;;;3.97;3.57;;;;;;;;;;5030776;28;24427;-59
2022/02/11 05:59:50;;;;;;;4.43;4.03;;;;;;;;;;5032353;28;24427;-59
2022/02/11 06:02:16;;;;;;;4.30;4.00;;;;;;;;;;5033307;28;24431;-59
2022/02/11 06:04:41;;;;;;;3.65;3.35;;;;;;;;;;5037801;28;24404;-59
2022/02/11 06:07:06;;;;;;;3.90;3.60;;;;;;;;;;5036060;28;24516;-58
2022/02/11 06:09:31;;;;;;;3.30;3.00;;;;;;;;;;5042058;28;24443;-59
2022/02/11 06:11:56;;;;;;;3.10;2.90;;;;;;;;;;5026254;28;24957;-59
2022/02/11 06:14:22;;;;;;;2.90;2.70;;;;;;;;;;5024442;28;24567;-60
2022/02/11 06:16:47;;;;;;;3.08;2.78;;;;;;;;;;5025168;28;24416;-59
2022/02/11 06:19:12;;;;;;;2.42;2.25;;;;;;;;;;5027110;28;24435;-60
2022/02/11 06:21:37;;;;;;;2.60;2.50;;;;;;;;;;5026647;28;24405;-60
2022/02/11 06:24:02;;;;;;;3.27;2.50;;;;;;;;;;5029054;28;24415;-59
2022/02/11 06:26:28;;;;;;;3.17;2.97;;;;;;;;;;5033176;28;24443;-59
2022/02/11 06:28:55;;;;;;;3.10;2.90;;;;;;;;;;5027188;28;24523;-59
2022/02/11 06:31:20;;;;;;;3.20;2.80;;;;;;;;;;5026583;28;24403;-59
2022/02/11 06:33:46;;;;;;;2.70;2.50;;;;;;;;;;5026302;28;24400;-59
2022/02/11 06:36:11;;;;;;;3.00;2.80;;;;;;;;;;5033588;28;24505;-59
2022/02/11 06:38:36;;;;;;;2.60;2.50;;;;;;;;;;5046118;28;24977;-59
2022/02/11 06:41:02;;;;;;;3.07;2.87;;;;;;;;;;5046030;28;24415;-59
2022/02/11 06:43:27;;;;;;;2.90;2.70;;;;;;;;;;5046355;28;24544;-58
2022/02/11 06:45:52;;;;;;;3.10;2.90;;;;;;;;;;5044261;28;24486;-58
2022/02/11 06:48:21;;;;;;;2.90;2.70;;;;;;;;;;5026519;28;24539;-59
2022/02/11 06:50:47;;;;;;;2.95;2.75;;;;;;;;;;5026287;28;24396;-59
2022/02/11 06:53:13;;;;;;;3.40;3.10;;;;;;;;;;5026093;28;24392;-59
2022/02/11 06:55:38;;;;;;;2.97;2.78;;;;;;;;;;5026487;28;24442;-59
2022/02/11 06:58:03;;;;;;;3.00;2.70;;;;;;;;;;5027235;28;24432;-58
2022/02/11 07:00:28;;;;;;;3.20;2.90;;;;;;;;;;5037197;28;25265;-58
2022/02/11 07:02:54;;;;;;;2.80;2.60;;;;;;;;;;5025829;28;24996;-59
2022/02/11 07:05:19;;;;;;;2.90;2.70;;;;;;;;;;5026896;28;24415;-59
2022/02/11 07:07:44;;;;;;;3.17;2.97;;;;;;;;;;5040048;28;24485;-59
2022/02/11 07:10:11;;;;;;;2.97;2.78;;;;;;;;;;5037078;28;24531;-60
2022/02/11 07:12:36;;;;;;;3.20;3.00;;;;;;;;;;5035036;28;24415;-61
2022/02/11 07:15:01;;;;;;;2.55;2.40;;;;;;;;;;5022578;28;24410;-60
2022/02/11 07:17:27;;;;;;;3.30;3.10;;;;;;;;;;5040024;28;24964;-58
2022/02/11 07:19:52;;;;;;;2.80;2.60;;;;;;;;;;5042856;28;24498;-59
2022/02/11 07:22:17;;;;;;;2.70;2.50;;;;;;;;;;5023913;28;24489;-59
2022/02/11 07:24:42;;;;;;;2.30;2.20;;;;;;;;;;5029245;28;24475;-60
2022/02/11 07:27:09;;;;;;;2.40;2.30;;;;;;;;;;5025163;28;24455;-60
2022/02/11 07:29:34;;;;;;;3.40;3.10;;;;;;;;;;5026097;28;24419;-59
2022/02/11 07:32:00;;;;;;;2.42;2.30;;;;;;;;;;5041290;28;24451;-59
2022/02/11 07:34:25;;;;;;;2.43;2.23;;;;;;;;;;5029864;28;24549;-60
2022/02/11 07:36:50;;;;;;;2.60;2.47;;;;;;;;;;5029516;28;24742;-59
2022/02/11 07:39:15;;;;;;;2.40;2.30;;;;;;;;;;5029038;28;25048;-59
2022/02/11 07:41:40;;;;;;;2.50;2.30;;;;;;;;;;5038191;28;24533;-59
2022/02/11 07:44:06;;;;;;;2.40;2.20;;;;;;;;;;5035691;28;24414;-60
2022/02/11 07:46:31;;;;;;;2.60;2.40;;;;;;;;;;5028225;28;24416;-59
2022/02/11 07:48:56;;;;;;;3.33;2.60;;;;;;;;;;5033938;28;24972;-59
2022/02/11 07:51:21;;;;;;;2.38;2.28;;;;;;;;;;5036474;28;24408;-59
2022/02/11 07:53:46;;;;;;;2.40;2.30;;;;;;;;;;5031805;28;24961;-59
2022/02/11 07:56:12;;;;;;;2.90;2.60;;;;;;;;;;5028816;28;24960;-59
2022/02/11 07:58:38;;;;;;;2.63;2.43;;;;;;;;;;5029086;28;24430;-59
2022/02/11 08:01:03;;;;;;;3.00;2.70;;;;;;;;;;5028605;28;24403;-59
2022/02/11 08:03:29;;;;;;;3.50;3.20;;;;;;;;;;5030078;28;24501;-59
2022/02/11 08:05:54;;;;;;;3.07;2.77;;;;;;;;;;5048173;28;24484;-59
2022/02/11 08:08:23;;;;;;;2.87;2.67;;;;;;;;;;5040007;28;24934;-59
2022/02/11 08:10:48;;;;;;;3.80;3.50;;;;;;;;;;5026703;28;24495;-59
2022/02/11 08:13:13;;;;;;;3.50;3.20;;;;;;;;;;5026740;28;24558;-58
2022/02/11 08:15:38;;;;;;;4.07;3.10;;;;;;;;;;5028709;28;24501;-58
2022/02/11 08:18:03;;;;;;;3.33;3.03;;;;;;;;;;5030798;28;24546;-59
2022/02/11 08:20:28;;;;;;;4.00;3.30;;;;;;;;;;5045794;28;24535;-58
2022/02/11 08:22:54;;;;;;;3.60;2.87;;;;;;;;;;5048444;28;24457;-59
2022/02/11 08:25:19;;;;;;;3.60;3.30;;;;;;;;;;5048245;28;24399;-59
2022/02/11 08:27:47;;;;;;;3.00;2.70;;;;;;;;;;5048227;28;24402;-59
2022/02/11 08:30:14;;;;;;;3.13;2.83;;;;;;;;;;5032623;28;24503;-58
2022/02/11 08:32:40;;;;;;;3.03;2.72;;;;;;;;;;5028413;28;24812;-58
2022/02/11 08:35:05;;;;;;;3.40;2.70;;;;;;;;;;5028424;28;24991;-59
2022/02/11 08:37:30;;;;;;;2.60;2.40;;;;;;;;;;5028151;28;24384;-59
2022/02/11 08:39:55;;;;;;;3.17;2.58;;;;;;;;;;5028692;28;24467;-59
2022/02/11 08:42:20;;;;;;;3.70;2.83;;;;;;;;;;5027675;28;24416;-59
2022/02/11 08:44:46;;;;;;;2.90;2.70;;;;;;;;;;5027949;28;24388;-58
2022/02/11 08:47:11;;;;;;;2.70;2.50;;;;;;;;;;5042303;28;24419;-58
2022/02/11 08:49:38;;;;;;;2.47;2.27;;;;;;;;;;5048410;28;24789;-58
2022/02/11 08:52:04;;;;;;;2.20;2.10;;;;;;;;;;5047871;28;24399;-59
2022/02/11 08:54:29;;;;;;;3.20;2.90;;;;;;;;;;5048460;28;24461;-58
2022/02/11 08:56:54;;;;;;;2.50;2.30;;;;;;;;;;5039744;28;24489;-58
2022/02/11 08:59:19;;;;;;;2.72;2.53;;;;;;;;;;5042838;28;24447;-58
2022/02/11 09:01:44;;;;;;;2.50;2.30;;;;;;;;;;5027907;28;24393;-59
2022/02/11 09:04:10;;;;;;;2.72;2.53;;;;;;;;;;5027246;28;24391;-58
2022/02/11 09:06:35;;;;;;;2.20;2.10;;;;;;;;;;5027159;28;24399;-59
2022/02/11 09:09:00;;;;;;;3.57;2.60;;;;;;;;;;5027309;28;24843;-59
2022/02/11 09:11:25;;;;;;;2.20;2.10;;;;;;;;;;5028671;28;24432;-58
2022/02/11 09:13:51;;;;;;;2.42;2.22;;;;;;;;;;5027214;28;24396;-58
2022/02/11 09:16:18;;;;;;;2.30;2.20;;;;;;;;;;5027393;28;24400;-58
2022/02/11 09:18:43;;;;;;;3.63;2.85;;;;;;;;;;5026995;28;24415;-59
2022/02/11 09:21:08;;;;;;;2.70;2.50;;;;;;;;;;5037989;28;24975;-59
2022/02/11 09:23:34;;;;;;;2.50;2.30;;;;;;;;;;5046882;28;24468;-59
2022/02/11 09:25:59;;;;;;;2.80;2.60;;;;;;;;;;5046905;28;24387;-59
2022/02/11 09:28:24;;;;;;;2.70;2.50;;;;;;;;;;5047146;28;24457;-58
2022/02/11 09:30:49;;;;;;;4.22;2.88;;;;;;;;;;5044928;28;24415;-58
2022/02/11 09:33:16;;;;;;;2.77;2.57;;;;;;;;;;5046790;28;24864;-58
2022/02/11 09:35:42;;;;;;;2.70;2.50;;;;;;;;;;5043397;28;24423;-59
2022/02/11 09:38:08;;;;;;;3.08;2.78;;;;;;;;;;5045037;28;24431;-59
2022/02/11 09:40:35;;;;;;;2.50;2.30;;;;;;;;;;5046788;28;24399;-59
2022/02/11 09:43:00;;;;;;;3.00;2.70;;;;;;;;;;5045080;28;24418;-59
2022/02/11 09:45:25;;;;;;;3.10;2.80;;;;;;;;;;5047105;28;24962;-58
2022/02/11 09:47:51;;;;;;;3.30;3.00;;;;;;;;;;5046957;28;24470;-58
2022/02/11 09:50:18;;;;;;;3.50;3.20;;;;;;;;;;5046948;28;24574;-58
2022/02/11 09:52:49;;;;;;;4.17;3.63;;;;;;;;;;5045605;28;24423;-58
2022/02/11 09:55:32;;;;;;;4.10;3.80;;;;;;;;;;5046368;28;24422;-58
2022/02/11 09:57:58;;;;;;;4.28;3.85;;;;;;;;;;5046720;28;24419;-58
2022/02/11 10:00:25;;;;;;;5.10;4.60;;;;;;;;;;5046358;28;24398;-58
2022/02/11 10:02:51;;;;;;;4.30;4.00;;;;;;;;;;5044557;28;24991;-58
2022/02/11 10:05:23;;;;;;;4.40;4.10;;;;;;;;;;5046798;28;24494;-57
2022/02/11 10:07:48;;;;;;;5.32;4.82;;;;;;;;;;5046708;28;24398;-57
2022/02/11 10:10:17;;;;;;;5.30;4.80;;;;;;;;;;5046208;28;24380;-57
2022/02/11 10:12:42;;;;;;;4.85;4.45;;;;;;;;;;5042285;28;24422;-58
2022/02/11 10:15:18;;;;;;;4.50;4.10;;;;;;;;;;5028537;28;24427;-57
2022/02/11 10:17:43;;;;;;;4.60;4.20;;;;;;;;;;5026284;28;24989;-58
2022/02/11 10:20:08;;;;;;;4.68;4.28;;;;;;;;;;5040129;28;24395;-57
2022/02/11 10:22:33;;;;;;;5.30;4.90;;;;;;;;;;5046150;28;25230;-58
2022/02/11 10:24:59;;;;;;;5.32;4.50;;;;;;;;;;5037101;28;25031;-58
2022/02/11 10:27:26;;;;;;;4.90;4.50;;;;;;;;;;5026046;28;24438;-58
2022/02/11 10:29:52;;;;;;;5.80;5.05;;;;;;;;;;5025979;28;24993;-58
2022/02/11 10:32:18;;;;;;;5.00;4.50;;;;;;;;;;5026132;28;24403;-59
2022/02/11 10:34:50;;;;;;;4.60;4.20;;;;;;;;;;5026971;28;24452;-58
2022/02/11 10:37:15;;;;;;;5.90;4.67;;;;;;;;;;5026351;28;24461;-57
2022/02/11 10:39:40;;;;;;;5.13;4.10;;;;;;;;;;5025721;28;24432;-57
2022/02/11 10:42:11;;;;;;;5.82;4.40;;;;;;;;;;5025932;28;24984;-57
2022/02/11 10:44:38;;;;;;;4.85;3.85;;;;;;;;;;5041162;28;24523;-57
2022/02/11 10:47:08;;;;;;;4.80;3.83;;;;;;;;;;5042415;28;24404;-56
2022/02/11 10:49:35;;;;;;;4.45;4.03;;;;;;;;;;5045900;28;24394;-57
2022/02/11 10:52:17;;;;;;;3.70;3.40;;;;;;;;;;5045339;28;24403;-57
2022/02/11 10:54:43;;;;;;;6.78;3.80;;;;;;;;;;5045661;28;24407;-56
2022/02/11 10:57:09;;;;;;;5.35;3.78;;;;;;;;;;5028700;28;24481;-57
2022/02/11 10:59:35;;;;;;;4.50;3.70;;;;;;;;;;5025601;28;24435;-56
2022/02/11 11:02:02;;;;;;;3.60;3.30;;;;;;;;;;5025524;28;24392;-58
2022/02/11 11:04:27;;;;;;;4.72;3.65;;;;;;;;;;5025585;28;24503;-56
2022/02/11 11:06:56;;;;;;;5.63;3.70;;;;;;;;;;5038207;28;24507;-57
2022/02/11 11:09:22;;;;;;;6.10;4.28;;;;;;;;;;5049439;28;24549;-57
2022/02/11 11:11:48;;;;;;;4.18;3.70;;;;;;;;;;5049179;28;24850;-57
2022/02/11 11:14:15;;;;;;;5.70;4.40;;;;;;;;;;5049343;28;24494;-59
2022/02/11 11:16:41;;;;;;;5.50;3.72;;;;;;;;;;5047643;28;25003;-58
2022/02/11 11:19:07;;;;;;;6.03;4.20;;;;;;;;;;5041486;28;24439;-57
2022/02/11 11:21:34;;;;;;;5.60;4.30;;;;;;;;;;5047274;28;25008;-57
2022/02/11 11:24:00;;;;;;;3.92;3.20;;;;;;;;;;5049310;28;24727;-57
2022/02/11 11:26:36;;;;;;;4.80;4.00;;;;;;;;;;5049191;28;24494;-57
2022/02/11 11:29:12;;;;;;;5.75;4.30;;;;;;;;;;5048364;28;24473;-61
2022/02/11 11:31:37;;;;;;;6.40;4.25;;;;;;;;;;5048882;28;24491;-57
2022/02/11 11:34:14;;;;;;;6.43;4.60;;;;;;;;;;5047770;28;24494;-57
2022/02/11 11:36:46;;;;;;;5.60;3.85;;;;;;;;;;5029251;28;24966;-58
2022/02/11 11:39:12;;;;;;;5.90;4.95;;;;;;;;;;5028751;28;24436;-57
2022/02/11 11:41:38;;;;;;;7.65;4.43;;;;;;;;;;5029115;28;24446;-57
2022/02/11 11:44:19;;;;;;;4.93;4.43;;;;;;;;;;5029246;28;24919;-57
2022/02/11 11:46:48;;;;;;;5.10;4.13;;;;;;;;;;5029137;28;24415;-56
2022/02/11 11:49:15;;;;;;;3.80;3.50;;;;;;;;;;5030351;28;24422;-57
2022/02/11 11:51:40;;;;;;;6.35;5.50;;;;;;;;;;5047202;28;24457;-57
2022/02/11 11:54:17;;;;;;;4.60;4.20;;;;;;;;;;5048839;28;24792;-57
2022/02/11 11:56:43;;;;;;;4.00;3.60;;;;;;;;;;5046706;28;24418;-57
2022/02/11 11:59:15;;;;;;;5.05;3.67;;;;;;;;;;5048158;28;24536;-56
2022/02/11 12:01:54;;;;;;;4.10;3.70;;;;;;;;;;5048418;28;24498;-57
2022/02/11 12:04:24;;;;;;;4.82;3.45;;;;;;;;;;5048269;28;24452;-57
2022/02/11 12:06:54;;;;;;;4.67;4.00;;;;;;;;;;5046815;28;24408;-57
2022/02/11 12:09:19;;;;;;;6.10;5.32;;;;;;;;;;5048260;28;24403;-56
2022/02/11 12:11:45;;;;;;;4.17;3.77;;;;;;;;;;5048163;28;24481;-56
2022/02/11 12:14:10;;;;;;;4.80;4.40;;;;;;;;;;5048395;28;24502;-56
2022/02/11 12:16:36;;;;;;;4.53;4.13;;;;;;;;;;5047033;28;24419;-56
2022/02/11 12:19:01;;;;;;;5.93;5.30;;;;;;;;;;5047859;28;24427;-57
2022/02/11 12:21:26;;;;;;;8.00;7.20;;;;;;;;;;5041019;28;24436;-56
2022/02/11 12:29:33;;;;;;;5.25;4.75;;;;;;;;;;5027674;28;24399;-56
2022/02/11 12:32:00;;;;;;;4.10;3.80;;;;;;;;;;5027492;28;24404;-57
2022/02/11 12:34:25;;;;;;;3.70;3.38;;;;;;;;;;5028869;28;24430;-57
2022/02/11 12:36:50;;;;;;;3.87;3.50;;;;;;;;;;5028779;28;24514;-56
2022/02/11 12:39:24;;;;;;;3.70;3.40;;;;;;;;;;5027500;28;24446;-56
2022/02/11 12:41:51;;;;;;;3.60;3.30;;;;;;;;;;5028006;28;24404;-56
2022/02/11 12:44:26;;;;;;;3.55;3.10;;;;;;;;;;5028115;28;24403;-56
2022/02/11 12:46:52;;;;;;;3.95;3.30;;;;;;;;;;5028053;28;24585;-56
2022/02/11 12:49:17;;;;;;;4.00;3.50;;;;;;;;;;5027945;28;24483;-56
2022/02/11 12:51:51;;;;;;;3.50;3.10;;;;;;;;;;5027985;28;24423;-56
2022/02/11 12:54:18;;;;;;;3.30;3.00;;;;;;;;;;5026936;28;24548;-56
2022/02/11 12:56:44;;;;;;;4.32;3.47;;;;;;;;;;5025648;28;24940;-56
2022/02/11 12:59:09;;;;;;;3.80;3.22;;;;;;;;;;5026329;28;24432;-56
2022/02/11 13:01:35;;;;;;;3.90;3.60;;;;;;;;;;5022825;28;24398;-56
2022/02/11 13:04:00;;;;;;;4.60;3.10;;;;;;;;;;5027811;28;24420;-56
2022/02/11 13:06:26;;;;;;;3.90;3.50;;;;;;;;;;5040215;28;24411;-56
2022/02/11 13:09:01;;;;;;;4.70;3.20;;;;;;;;;;5047203;28;24399;-55
2022/02/11 13:11:27;;;;;;;4.15;3.75;;;;;;;;;;5039355;28;24412;-55
2022/02/11 13:14:01;;;;;;;3.42;3.13;;;;;;;;;;5034506;28;24430;-56
2022/02/11 13:16:27;;;;;;;4.90;4.10;;;;;;;;;;5045089;28;24431;-56
2022/02/11 13:18:52;;;;;;;3.60;3.30;;;;;;;;;;5035959;28;24962;-55
2022/02/11 13:21:20;;;;;;;3.93;3.60;;;;;;;;;;5058773;28;24421;-56
2022/02/11 13:23:49;;;;;;;3.77;3.47;;;;;;;;;;5034110;28;24544;-57
2022/02/11 13:26:15;;;;;;;3.50;3.20;;;;;;;;;;5042961;28;24519;-56
2022/02/11 13:28:48;;;;;;;4.07;3.33;;;;;;;;;;5029817;28;24523;-57
2022/02/11 13:31:13;;;;;;;3.70;3.40;;;;;;;;;;5037949;28;24434;-54
2022/02/11 13:33:39;;;;;;;4.67;3.33;;;;;;;;;;5034331;28;24979;-57
2022/02/11 13:36:08;;;;;;;3.70;3.40;;;;;;;;;;5032980;28;24759;-57
2022/02/11 13:38:34;;;;;;;3.60;3.20;;;;;;;;;;5030150;28;24435;-55
2022/02/11 13:41:07;;;;;;;4.30;3.90;;;;;;;;;;5041076;28;24473;-58
2022/02/11 13:43:47;;;;;;;4.13;3.72;;;;;;;;;;5054190;28;24414;-56
2022/02/11 13:46:23;;;;;;;3.70;3.33;;;;;;;;;;5066805;28;24579;-56
2022/02/11 13:48:52;;;;;;;4.55;3.88;;;;;;;;;;5047750;28;24422;-56
2022/02/11 13:51:18;;;;;;;4.00;3.60;;;;;;;;;;5034919;28;24522;-55
2022/02/11 13:53:44;;;;;;;3.90;3.60;;;;;;;;;;5030009;28;24499;-55
2022/02/11 13:56:10;;;;;;;4.55;4.15;;;;;;;;;;5031306;28;24410;-56
2022/02/11 13:58:36;;;;;;;3.90;3.60;;;;;;;;;;5030941;28;24455;-56
2022/02/11 14:01:02;;;;;;;4.25;3.75;;;;;;;;;;5041175;28;24411;-57
2022/02/11 14:03:30;;;;;;;4.95;3.80;;;;;;;;;;5052036;28;25315;-56
2022/02/11 14:05:56;;;;;;;3.60;3.30;;;;;;;;;;5027909;28;24602;-56
2022/02/11 14:08:23;;;;;;;3.90;3.60;;;;;;;;;;5027675;28;24522;-57
2022/02/11 14:11:06;;;;;;;4.22;3.50;;;;;;;;;;5031375;28;24407;-56
2022/02/11 14:13:32;;;;;;;3.53;3.22;;;;;;;;;;5036842;28;25062;-56
2022/02/11 14:15:57;;;;;;;4.43;4.03;;;;;;;;;;5040018;28;24528;-56
2022/02/11 14:18:23;;;;;;;4.10;3.70;;;;;;;;;;5033871;28;24554;-57
2022/02/11 14:20:48;;;;;;;4.70;4.03;;;;;;;;;;5050404;28;24418;-57
2022/02/11 14:23:14;;;;;;;4.47;4.07;;;;;;;;;;5036685;28;24598;-56
2022/02/11 14:25:42;;;;;;;4.22;3.92;;;;;;;;;;5031576;28;24435;-56
2022/02/11 14:28:07;;;;;;;4.30;4.00;;;;;;;;;;5027419;28;24423;-56
2022/02/11 14:30:32;;;;;;;4.57;3.90;;;;;;;;;;5035317;28;24427;-56
2022/02/11 14:32:58;;;;;;;4.50;4.10;;;;;;;;;;5048380;28;24422;-56
2022/02/11 14:35:23;;;;;;;4.13;3.60;;;;;;;;;;5041982;28;25191;-55
2022/02/11 14:37:48;;;;;;;4.70;4.30;;;;;;;;;;5041235;28;24644;-55
2022/02/11 14:40:13;;;;;;;4.10;3.80;;;;;;;;;;5036812;28;24450;-55
2022/02/11 14:42:38;;;;;;;4.20;3.80;;;;;;;;;;5027431;28;24396;-56
2022/02/11 14:45:03;;;;;;;4.50;3.90;;;;;;;;;;5027354;28;24478;-56
2022/02/11 14:47:29;;;;;;;5.10;4.10;;;;;;;;;;5039201;28;24973;-56
2022/02/11 14:49:54;;;;;;;4.03;3.63;;;;;;;;;;5033686;28;24427;-56
2022/02/11 14:52:19;;;;;;;4.15;3.75;;;;;;;;;;5039951;28;24431;-56
2022/02/11 14:54:45;;;;;;;7.85;6.07;;;;;;;;;;5033882;28;25007;-55
2022/02/11 14:57:10;;;;;;;14.27;9.80;;;;;;;;;;5031281;28;24427;-55
2022/02/11 14:59:35;;;;;;;5.00;4.40;;;;;;;;;;5044342;28;24435;-54
2022/02/11 15:02:00;;;;;;;12.93;7.07;;;;;;;;;;5040737;28;25059;-56
2022/02/11 15:04:26;;;;;;;46.47;26.20;;;;;;;;;;5026466;28;25319;-57
2022/02/11 15:06:51;;;;;;;14.77;9.98;;;;;;;;;;5026907;28;24923;-56
2022/02/11 15:09:18;;;;;;;13.33;9.77;;;;;;;;;;5027486;28;24420;-56
2022/02/11 15:11:43;;;;;;;7.55;6.20;;;;;;;;;;5028192;28;24546;-56
2022/02/11 15:14:09;;;;;;;7.30;6.13;;;;;;;;;;5040243;28;24459;-56
2022/02/11 15:16:34;;;;;;;5.97;5.38;;;;;;;;;;5034773;28;24427;-56
2022/02/11 15:19:00;;;;;;;8.30;6.67;;;;;;;;;;5026307;28;24424;-56
2022/02/11 15:21:25;;;;;;;5.93;4.88;;;;;;;;;;5026143;28;24794;-56
2022/02/11 15:23:50;;;;;;;5.80;5.07;;;;;;;;;;5027802;28;24817;-56
2022/02/11 15:26:16;;;;;;;6.40;5.75;;;;;;;;;;5027191;28;24419;-56
2022/02/11 15:28:42;;;;;;;5.00;4.50;;;;;;;;;;5032800;28;24510;-56
2022/02/11 15:31:09;;;;;;;8.60;6.57;;;;;;;;;;5029110;28;24534;-55
2022/02/11 15:33:35;;;;;;;9.63;7.05;;;;;;;;;;5043289;28;24823;-55
2022/02/11 15:36:00;;;;;;;5.33;4.80;;;;;;;;;;5040508;28;24957;-56
2022/02/11 15:38:25;;;;;;;5.70;5.20;;;;;;;;;;5049395;28;24575;-57
2022/02/11 15:40:51;;;;;;;4.03;3.70;;;;;;;;;;5059171;28;24408;-56
2022/02/11 15:43:16;;;;;;;6.10;5.40;;;;;;;;;;5046133;28;24445;-56
2022/02/11 15:45:42;;;;;;;5.60;5.00;;;;;;;;;;5036881;28;24498;-56
2022/02/11 15:48:07;;;;;;;12.97;10.13;;;;;;;;;;5025864;28;24491;-56
2022/02/11 15:50:32;;;;;;;6.80;5.80;;;;;;;;;;5029043;28;24481;-56
2022/02/11 15:52:57;;;;;;;4.97;4.27;;;;;;;;;;5032868;28;24415;-55
2022/02/11 15:55:22;;;;;;;4.20;3.53;;;;;;;;;;5026158;28;24575;-54
2022/02/11 15:57:48;;;;;;;4.10;3.80;;;;;;;;;;5025893;28;24416;-56
2022/02/11 16:00:14;;;;;;;4.90;4.50;;;;;;;;;;5031375;28;24424;-53
2022/02/11 16:02:39;;;;;;;3.97;3.63;;;;;;;;;;5041097;28;24502;-54
2022/02/11 16:05:06;;;;;;;3.20;2.90;;;;;;;;;;5046124;28;24600;-53
2022/02/11 16:07:31;;;;;;;3.00;2.70;;;;;;;;;;5031510;28;24522;-53
2022/02/11 16:09:56;;;;;;;3.47;3.17;;;;;;;;;;5041696;28;24985;-54
2022/02/11 16:12:21;;;;;;;2.70;2.50;;;;;;;;;;5032403;28;24419;-53
2022/02/11 16:14:47;;;;;;;2.70;2.50;;;;;;;;;;5040888;28;24423;-54
2022/02/11 16:17:12;;;;;;;2.70;2.50;;;;;;;;;;5034561;28;24420;-55
2022/02/11 16:19:37;;;;;;;3.00;2.80;;;;;;;;;;5031368;28;24890;-56
2022/02/11 16:22:04;;;;;;;3.00;2.80;;;;;;;;;;5031195;28;25053;-57
2022/02/11 16:24:29;;;;;;;3.10;2.90;;;;;;;;;;5038576;28;24419;-54
2022/02/11 16:26:54;;;;;;;3.30;3.07;;;;;;;;;;5034912;28;24507;-55
2022/02/11 16:29:19;;;;;;;3.40;3.10;;;;;;;;;;5029241;28;24519;-55
2022/02/11 16:31:45;;;;;;;3.50;3.20;;;;;;;;;;5058838;28;24404;-56
2022/02/11 16:34:10;;;;;;;3.93;3.57;;;;;;;;;;5042344;28;24478;-55
2022/02/11 16:36:39;;;;;;;3.33;3.03;;;;;;;;;;5029808;28;24474;-55
2022/02/11 16:39:05;;;;;;;2.90;2.70;;;;;;;;;;5027986;28;24540;-55
2022/02/11 16:41:30;;;;;;;3.20;3.00;;;;;;;;;;5035942;28;24427;-56
2022/02/11 16:43:55;;;;;;;4.05;3.70;;;;;;;;;;5028068;28;24408;-56
2022/02/11 16:46:20;;;;;;;3.28;3.05;;;;;;;;;;5025865;28;25004;-56
2022/02/11 16:48:45;;;;;;;3.30;3.10;;;;;;;;;;5035657;28;24466;-56
2022/02/11 16:51:11;;;;;;;3.50;3.20;;;;;;;;;;5025504;28;24424;-56
2022/02/11 16:53:36;;;;;;;3.83;3.47;;;;;;;;;;5046980;28;24545;-56
2022/02/11 16:56:01;;;;;;;3.60;3.30;;;;;;;;;;5042229;28;24439;-55
2022/02/11 16:58:26;;;;;;;3.77;3.47;;;;;;;;;;5036140;28;24423;-55
2022/02/11 17:00:52;;;;;;;3.40;3.10;;;;;;;;;;5027330;28;24966;-57
2022/02/11 17:03:17;;;;;;;3.67;3.38;;;;;;;;;;5028486;28;24422;-54
2022/02/11 17:05:42;;;;;;;3.20;3.00;;;;;;;;;;5047184;28;24398;-55
2022/02/11 17:08:07;;;;;;;3.70;3.40;;;;;;;;;;5044847;28;24889;-55
2022/02/11 17:10:33;;;;;;;3.40;3.10;;;;;;;;;;5042740;28;25074;-55
2022/02/11 17:12:59;;;;;;;3.80;3.50;;;;;;;;;;5046893;28;24402;-57
2022/02/11 17:15:24;;;;;;;4.28;3.88;;;;;;;;;;5040223;28;24427;-57
2022/02/11 17:17:49;;;;;;;4.47;4.10;;;;;;;;;;5028389;28;25200;-57
2022/02/11 17:20:15;;;;;;;5.00;4.50;;;;;;;;;;5035817;28;24455;-58
2022/02/11 17:22:40;;;;;;;5.60;4.60;;;;;;;;;;5030060;28;24455;-60
2022/02/11 17:25:06;;;;;;;6.27;4.53;;;;;;;;;;5022635;28;24517;-58
2022/02/11 17:27:35;;;;;;;4.00;3.70;;;;;;;;;;5038676;28;24582;-58
2022/02/11 17:30:01;;;;;;;4.10;3.70;;;;;;;;;;5039681;28;24418;-58
2022/02/11 17:32:26;;;;;;;3.70;3.40;;;;;;;;;;5026957;28;24404;-58
2022/02/11 17:34:51;;;;;;;4.30;3.90;;;;;;;;;;5037712;28;25015;-59
2022/02/11 17:37:17;;;;;;;5.90;4.07;;;;;;;;;;5046678;28;25036;-57
2022/02/11 17:39:44;;;;;;;4.90;4.50;;;;;;;;;;5043715;28;24482;-58
2022/02/11 17:42:09;;;;;;;4.10;3.70;;;;;;;;;;5047390;28;24474;-58
2022/02/11 17:44:34;;;;;;;4.70;4.20;;;;;;;;;;5029692;28;24502;-58
2022/02/11 17:47:00;;;;;;;6.20;5.20;;;;;;;;;;5046892;28;24936;-58
2022/02/11 17:49:26;;;;;;;4.80;4.40;;;;;;;;;;5038802;28;24430;-58
2022/02/11 17:51:51;;;;;;;4.88;4.40;;;;;;;;;;5050379;28;24658;-58
2022/02/11 17:54:17;;;;;;;5.70;5.10;;;;;;;;;;5035241;28;25019;-58
2022/02/11 17:56:42;;;;;;;5.70;5.20;;;;;;;;;;5033701;28;24455;-57
2022/02/11 17:59:09;;;;;;;4.93;4.53;;;;;;;;;;5035207;28;25002;-57
2022/02/11 18:01:34;;;;;;;5.95;4.70;;;;;;;;;;5026237;28;24443;-57
2022/02/11 18:03:59;;;;;;;5.10;4.43;;;;;;;;;;5031157;28;24821;-57
2022/02/11 18:06:24;;;;;;;8.88;6.38;;;;;;;;;;5031307;28;24470;-57
2022/02/11 18:08:49;;;;;;;6.13;5.10;;;;;;;;;;5043646;28;24415;-57
2022/02/11 18:11:14;;;;;;;5.72;5.22;;;;;;;;;;5031781;28;24420;-59